createdAt,value
2017-07-25T00:01:01.772Z,8.60
2017-07-25T00:03:31.581Z,9.03
2017-07-25T00:06:00.528Z,9.50
2017-07-25T00:08:29.515Z,10.73
2017-07-25T00:10:58.497Z,10.10
2017-07-25T00:13:27.474Z,9.87
2017-07-25T00:15:56.431Z,10.17
2017-07-25T00:18:25.473Z,11.63
2017-07-25T00:20:54.846Z,11.30
2017-07-25T00:23:23.904Z,12.23
2017-07-25T00:25:53.186Z,11.20
2017-07-25T00:28:22.166Z,11.73
2017-07-25T00:30:51.138Z,10.60
2017-07-25T00:33:20.114Z,10.97
2017-07-25T00:35:49.196Z,10.80
2017-07-25T00:38:18.935Z,11.00
2017-07-25T00:40:47.986Z,10.13
2017-07-25T00:43:17.516Z,9.03
2017-07-25T00:45:46.497Z,9.80
2017-07-25T00:48:15.464Z,10.60
2017-07-25T00:50:44.565Z,9.67
2017-07-25T00:53:13.537Z,9.70
2017-07-25T00:55:42.484Z,11.10
2017-07-25T00:58:11.488Z,10.77
2017-07-25T01:00:40.758Z,10.80
2017-07-25T01:03:10.529Z,10.13
2017-07-25T01:05:40.248Z,9.80
2017-07-25T01:08:09.204Z,10.57
2017-07-25T01:10:38.193Z,10.03
2017-07-25T01:13:07.149Z,11.33
2017-07-25T01:15:36.450Z,11.27
2017-07-25T01:18:05.425Z,13.47
2017-07-25T01:20:34.388Z,12.67
2017-07-25T01:23:03.382Z,13.27
2017-07-25T01:25:32.367Z,14.33
2017-07-25T01:28:01.377Z,14.70
2017-07-25T01:30:30.319Z,13.53
2017-07-25T01:32:59.329Z,15.60
2017-07-25T01:35:28.284Z,14.97
2017-07-25T01:37:58.049Z,14.17
2017-07-25T01:40:27.073Z,16.63
2017-07-25T01:42:56.060Z,13.97
2017-07-25T01:45:25.025Z,13.30
2017-07-25T01:47:53.979Z,13.10
2017-07-25T01:50:23.013Z,13.40
2017-07-25T01:52:52.051Z,12.00
2017-07-25T01:55:21.917Z,12.50
2017-07-25T01:57:50.900Z,13.07
2017-07-25T02:00:19.862Z,14.73
2017-07-25T02:02:48.856Z,13.83
2017-07-25T02:05:17.840Z,12.57
2017-07-25T02:07:46.811Z,13.60
2017-07-25T02:10:15.779Z,12.63
2017-07-25T02:12:44.776Z,12.00
2017-07-25T02:15:13.753Z,12.93
2017-07-25T02:17:42.747Z,13.83
2017-07-25T02:20:11.740Z,15.17
2017-07-25T02:22:40.774Z,14.80
2017-07-25T02:25:10.532Z,12.87
2017-07-25T02:27:39.494Z,14.77
2017-07-25T02:30:08.493Z,12.70
2017-07-25T02:32:37.487Z,13.60
2017-07-25T02:35:06.475Z,14.60
2017-07-25T02:37:35.465Z,14.80
2017-07-25T02:40:04.453Z,13.00
2017-07-25T02:42:33.426Z,13.40
2017-07-25T02:45:03.193Z,12.93
2017-07-25T02:47:32.147Z,12.70
2017-07-25T02:50:01.141Z,16.17
2017-07-25T02:52:30.120Z,15.50
2017-07-25T02:54:59.841Z,15.27
2017-07-25T02:57:28.833Z,14.10
2017-07-25T02:59:57.805Z,13.20
2017-07-25T03:02:27.550Z,12.33
2017-07-25T03:04:56.497Z,12.80
2017-07-25T03:07:25.518Z,13.97
2017-07-25T03:09:54.488Z,13.77
2017-07-25T03:12:24.243Z,12.57
2017-07-25T03:14:53.425Z,13.23
2017-07-25T03:17:22.408Z,14.37
2017-07-25T03:19:51.354Z,14.27
2017-07-25T03:22:20.337Z,14.00
2017-07-25T03:24:49.310Z,13.33
2017-07-25T03:27:18.330Z,12.70
2017-07-25T03:29:47.284Z,12.03
2017-07-25T03:32:16.482Z,13.10
2017-07-25T03:34:45.486Z,13.30
2017-07-25T03:37:14.467Z,12.30
2017-07-25T03:39:43.438Z,12.33
2017-07-25T03:42:12.443Z,11.50
2017-07-25T03:44:41.391Z,12.73
2017-07-25T03:47:10.424Z,12.47
2017-07-25T03:49:39.437Z,12.43
2017-07-25T03:52:08.427Z,12.73
2017-07-25T03:54:37.388Z,12.10
2017-07-25T03:57:06.427Z,10.97
2017-07-25T03:59:35.421Z,12.20
2017-07-25T04:02:05.073Z,11.10
2017-07-25T04:04:34.940Z,13.10
2017-07-25T04:07:03.911Z,11.67
2017-07-25T04:09:32.890Z,11.83
2017-07-25T04:12:01.856Z,12.40
2017-07-25T04:14:31.618Z,12.60
2017-07-25T04:17:00.572Z,12.93
2017-07-25T04:19:29.560Z,12.13
2017-07-25T04:21:59.276Z,12.93
2017-07-25T04:24:29.037Z,11.70
2017-07-25T04:26:57.995Z,13.40
2017-07-25T04:29:27.085Z,11.70
2017-07-25T04:31:56.077Z,11.30
2017-07-25T04:34:25.881Z,13.47
2017-07-25T04:36:54.878Z,14.50
2017-07-25T04:39:24.763Z,12.67
2017-07-25T04:41:54.628Z,15.70
2017-07-25T04:44:23.616Z,14.33
2017-07-25T04:46:52.567Z,13.00
2017-07-25T04:49:22.328Z,14.50
2017-07-25T04:51:51.318Z,14.60
2017-07-25T04:54:20.292Z,15.03
2017-07-25T04:56:49.276Z,14.10
2017-07-25T04:59:18.241Z,15.70
2017-07-25T05:01:48.057Z,14.90
2017-07-25T05:04:17.274Z,17.27
2017-07-25T05:06:47.104Z,15.37
2017-07-25T05:09:16.071Z,15.83
2017-07-25T05:11:45.048Z,15.17
2017-07-25T05:14:14.783Z,18.30
2017-07-25T05:16:43.756Z,20.10
2017-07-25T05:19:12.746Z,19.20
2017-07-25T05:21:42.497Z,18.67
2017-07-25T05:24:11.446Z,18.37
2017-07-25T05:26:41.462Z,19.30
2017-07-25T05:29:10.500Z,21.07
2017-07-25T05:31:39.453Z,19.73
2017-07-25T05:34:08.421Z,20.70
2017-07-25T05:36:37.427Z,19.83
2017-07-25T05:39:06.943Z,20.13
2017-07-25T05:41:35.923Z,21.70
2017-07-25T05:44:05.663Z,20.60
2017-07-25T05:46:34.638Z,18.87
2017-07-25T05:49:04.846Z,18.40
2017-07-25T05:51:33.918Z,17.10
2017-07-25T05:54:05.533Z,15.00
2017-07-25T05:56:34.524Z,14.17
2017-07-25T05:59:03.494Z,14.10
2017-07-25T06:01:32.474Z,14.17
2017-07-25T06:04:01.456Z,15.33
2017-07-25T06:06:31.272Z,12.43
2017-07-25T06:09:01.014Z,12.50
2017-07-25T06:11:29.980Z,11.50
2017-07-25T06:13:59.705Z,11.93
2017-07-25T06:16:28.681Z,11.17
2017-07-25T06:18:57.682Z,13.07
2017-07-25T06:21:26.919Z,12.30
2017-07-25T06:23:55.958Z,12.47
2017-07-25T06:26:25.682Z,11.90
2017-07-25T06:28:54.637Z,12.20
2017-07-25T06:31:23.927Z,15.20
2017-07-25T06:33:52.910Z,12.37
2017-07-25T06:36:21.964Z,12.10
2017-07-25T06:38:50.934Z,12.70
2017-07-25T06:41:20.749Z,12.90
2017-07-25T06:43:49.725Z,11.17
2017-07-25T06:46:18.705Z,12.50
2017-07-25T06:48:47.671Z,11.03
2017-07-25T06:51:16.972Z,10.23
2017-07-25T06:53:45.924Z,11.57
2017-07-25T06:56:15.008Z,8.27
2017-07-25T06:58:44.731Z,10.87
2017-07-25T07:01:13.966Z,10.80
2017-07-25T07:03:43.744Z,8.97
2017-07-25T07:06:13.041Z,8.50
2017-07-25T07:08:44.090Z,9.20
2017-07-25T07:11:13.082Z,9.17
2017-07-25T07:13:42.036Z,8.07
2017-07-25T07:16:11.011Z,7.70
2017-07-25T07:18:39.973Z,7.97
2017-07-25T07:21:09.033Z,7.97
2017-07-25T07:23:38.774Z,7.23
2017-07-25T07:26:07.713Z,7.03
2017-07-25T07:28:36.693Z,7.57
2017-07-25T07:31:06.900Z,7.90
2017-07-25T07:33:36.165Z,7.40
2017-07-25T07:36:05.124Z,8.43
2017-07-25T07:38:34.122Z,7.13
2017-07-25T07:41:03.215Z,6.73
2017-07-25T07:43:32.190Z,7.83
2017-07-25T07:46:01.304Z,5.67
2017-07-25T07:48:30.262Z,7.63
2017-07-25T07:50:59.234Z,6.97
2017-07-25T07:53:28.186Z,7.37
2017-07-25T07:55:57.179Z,6.37
2017-07-25T07:58:26.161Z,7.30
2017-07-25T08:00:56.687Z,6.87
2017-07-25T08:03:25.729Z,5.90
2017-07-25T08:05:55.418Z,7.43
2017-07-25T08:08:24.385Z,6.17
2017-07-25T08:10:53.416Z,5.83
2017-07-25T08:13:22.373Z,6.60
2017-07-25T08:15:51.732Z,7.47
2017-07-25T08:18:20.700Z,4.90
2017-07-25T08:20:49.668Z,5.77
2017-07-25T08:23:18.720Z,5.73
2017-07-25T08:25:47.752Z,5.20
2017-07-25T08:28:16.940Z,5.33
2017-07-25T08:30:47.124Z,4.90
2017-07-25T08:33:16.129Z,5.03
2017-07-25T08:35:45.081Z,4.73
2017-07-25T08:38:14.056Z,4.10
2017-07-25T08:40:43.023Z,3.90
2017-07-25T08:43:11.964Z,3.50
2017-07-25T08:45:41.457Z,3.60
2017-07-25T08:48:12.912Z,4.00
2017-07-25T08:50:41.882Z,4.37
2017-07-25T08:53:10.993Z,4.67
2017-07-25T08:55:40.028Z,4.47
2017-07-25T08:58:08.977Z,3.93
2017-07-25T09:00:37.927Z,3.50
2017-07-25T09:03:07.984Z,3.73
2017-07-25T09:05:36.973Z,3.87
2017-07-25T09:08:05.990Z,3.57
2017-07-25T09:10:34.948Z,4.23
2017-07-25T09:13:03.896Z,3.80
2017-07-25T09:15:32.874Z,5.97
2017-07-25T09:18:01.835Z,4.20
2017-07-25T09:20:30.776Z,6.27
2017-07-25T09:23:14.740Z,6.40
2017-07-25T09:25:44.922Z,4.73
2017-07-25T09:28:13.914Z,4.87
2017-07-25T09:30:42.860Z,6.23
2017-07-25T09:33:11.982Z,4.27
2017-07-25T09:35:40.944Z,4.63
2017-07-25T09:38:09.965Z,4.63
2017-07-25T09:40:39.239Z,4.20
2017-07-25T09:43:08.205Z,3.70
2017-07-25T09:45:37.188Z,3.33
2017-07-25T09:48:07.011Z,4.50
2017-07-25T09:50:36.721Z,4.27
2017-07-25T09:53:06.455Z,4.37
2017-07-25T09:55:35.413Z,5.00
2017-07-25T09:58:04.515Z,3.80
2017-07-25T10:00:33.456Z,3.50
2017-07-25T10:03:02.417Z,4.63
2017-07-25T10:05:32.164Z,4.67
2017-07-25T10:08:01.101Z,3.77
2017-07-25T10:10:30.052Z,3.43
2017-07-25T10:12:59.096Z,3.70
2017-07-25T10:15:28.072Z,3.30
2017-07-25T10:17:57.037Z,3.40
2017-07-25T10:20:26.035Z,3.20
2017-07-25T10:22:54.970Z,3.60
2017-07-25T10:25:23.906Z,3.13
2017-07-25T10:27:53.027Z,4.67
2017-07-25T10:30:21.996Z,3.33
2017-07-25T10:32:50.955Z,3.43
2017-07-25T10:35:19.924Z,3.90
2017-07-25T10:37:48.903Z,3.40
2017-07-25T10:40:18.635Z,3.77
2017-07-25T10:42:47.599Z,3.23
2017-07-25T10:45:16.555Z,3.43
2017-07-25T10:47:45.517Z,3.00
2017-07-25T10:50:14.780Z,3.33
2017-07-25T10:52:44.550Z,3.13
2017-07-25T10:55:13.508Z,3.17
2017-07-25T10:57:42.459Z,2.67
2017-07-25T11:00:11.433Z,2.60
2017-07-25T11:02:40.590Z,3.07
2017-07-25T11:05:10.445Z,2.83
2017-07-25T11:07:39.415Z,2.83
2017-07-25T11:10:08.375Z,3.50
2017-07-25T11:12:37.777Z,3.23
2017-07-25T11:15:07.498Z,4.50
2017-07-25T11:17:36.481Z,3.60
2017-07-25T11:20:06.126Z,4.50
2017-07-25T11:22:35.240Z,4.30
2017-07-25T11:25:04.176Z,4.50
2017-07-25T11:27:33.155Z,5.67
2017-07-25T11:30:02.912Z,6.47
2017-07-25T11:32:31.868Z,5.43
2017-07-25T11:35:00.840Z,6.23
2017-07-25T11:37:30.571Z,7.57
2017-07-25T11:39:59.650Z,5.53
2017-07-25T11:42:29.361Z,5.87
2017-07-25T11:44:58.367Z,4.47
2017-07-25T11:47:27.319Z,6.67
2017-07-25T11:49:56.327Z,6.87
2017-07-25T11:52:26.031Z,6.80
2017-07-25T11:54:55.902Z,7.90
2017-07-25T11:57:26.210Z,5.50
2017-07-25T11:59:55.198Z,5.10
2017-07-25T12:02:24.231Z,5.00
2017-07-25T12:04:53.212Z,6.20
2017-07-25T12:07:23.331Z,5.97
2017-07-25T12:09:52.310Z,4.77
2017-07-25T12:12:21.269Z,6.10
2017-07-25T12:14:50.274Z,6.13
2017-07-25T12:17:19.297Z,7.43
2017-07-25T12:19:48.377Z,5.40
2017-07-25T12:22:17.416Z,5.00
2017-07-25T12:24:46.388Z,6.63
2017-07-25T12:27:15.373Z,4.83
2017-07-25T12:29:44.400Z,5.70
2017-07-25T12:32:13.350Z,5.90
2017-07-25T12:34:43.628Z,5.10
2017-07-25T12:37:12.577Z,5.20
2017-07-25T12:39:41.581Z,5.70
2017-07-25T12:42:10.636Z,6.20
2017-07-25T12:44:39.602Z,5.97
2017-07-25T12:47:09.391Z,5.70
2017-07-25T12:49:38.345Z,7.70
2017-07-25T12:52:07.301Z,7.77
2017-07-25T12:54:36.308Z,6.33
2017-07-25T12:57:05.271Z,7.27
2017-07-25T12:59:35.391Z,6.87
2017-07-25T13:02:16.792Z,6.90
2017-07-25T13:04:45.778Z,7.57
2017-07-25T13:07:15.506Z,8.00
2017-07-25T13:09:44.482Z,7.00
2017-07-25T13:12:13.499Z,7.33
2017-07-25T13:14:42.659Z,5.97
2017-07-25T13:17:11.654Z,6.33
2017-07-25T13:19:40.643Z,7.50
2017-07-25T13:22:10.426Z,4.90
2017-07-25T13:24:39.429Z,6.30
2017-07-25T13:27:08.416Z,5.87
2017-07-25T13:29:37.374Z,5.90
2017-07-25T13:32:06.358Z,5.30
2017-07-25T13:34:35.327Z,5.20
2017-07-25T13:37:05.080Z,6.13
2017-07-25T13:39:34.019Z,6.07
2017-07-25T13:42:03.748Z,6.20
2017-07-25T13:44:32.756Z,6.33
2017-07-25T13:47:02.821Z,6.40
2017-07-25T13:49:32.056Z,5.60
2017-07-25T13:52:01.170Z,7.03
2017-07-25T13:54:30.162Z,6.40
2017-07-25T13:56:59.112Z,6.43
2017-07-25T13:59:28.092Z,6.80
2017-07-25T14:01:57.194Z,8.67
2017-07-25T14:04:27.874Z,6.40
2017-07-25T14:06:56.934Z,8.30
2017-07-25T14:09:26.713Z,7.80
2017-07-25T14:11:56.312Z,8.60
2017-07-25T14:14:25.320Z,8.90
2017-07-25T14:16:55.009Z,9.03
2017-07-25T14:19:24.105Z,8.93
2017-07-25T14:21:53.092Z,9.10
2017-07-25T14:24:22.079Z,11.17
2017-07-25T14:26:51.046Z,9.27
2017-07-25T14:29:20.047Z,9.13
2017-07-25T14:31:49.023Z,9.80
2017-07-25T14:34:18.101Z,9.37
2017-07-25T14:36:47.883Z,9.10
2017-07-25T14:39:16.873Z,8.70
2017-07-25T14:41:45.925Z,8.70
2017-07-25T14:44:14.957Z,8.60
2017-07-25T14:46:43.924Z,8.43
2017-07-25T14:49:12.923Z,7.30
2017-07-25T14:51:41.900Z,7.13
2017-07-25T14:54:10.844Z,8.20
2017-07-25T14:56:39.814Z,8.17
2017-07-25T14:59:09.998Z,8.10
2017-07-25T15:01:38.989Z,7.13
2017-07-25T15:04:08.041Z,5.90
2017-07-25T15:06:38.245Z,6.10
2017-07-25T15:09:07.294Z,4.60
2017-07-25T15:11:36.333Z,4.50
2017-07-25T15:14:05.313Z,3.53
2017-07-25T15:16:34.394Z,4.17
2017-07-25T15:19:03.590Z,5.10
2017-07-25T15:21:33.906Z,4.90
2017-07-25T15:24:02.872Z,4.60
2017-07-25T15:26:31.900Z,4.23
2017-07-25T15:29:00.857Z,4.47
2017-07-25T15:31:29.833Z,4.47
2017-07-25T15:33:59.558Z,4.13
2017-07-25T15:36:28.527Z,3.97
2017-07-25T15:38:58.242Z,4.90
2017-07-25T15:41:27.635Z,4.90
2017-07-25T15:43:57.358Z,4.90
2017-07-25T15:46:27.179Z,3.90
2017-07-25T15:48:56.157Z,4.47
2017-07-25T15:51:25.918Z,4.97
2017-07-25T15:53:54.892Z,4.37
2017-07-25T15:56:23.833Z,4.50
2017-07-25T15:58:52.810Z,4.97
2017-07-25T16:01:21.752Z,4.37
2017-07-25T16:03:50.823Z,3.97
2017-07-25T16:06:19.807Z,4.30
2017-07-25T16:08:48.747Z,4.00
2017-07-25T16:11:17.714Z,4.87
2017-07-25T16:13:46.692Z,4.20
2017-07-25T16:16:16.037Z,3.93
2017-07-25T16:18:45.079Z,4.13
2017-07-25T16:21:14.813Z,3.83
2017-07-25T16:23:43.776Z,4.10
2017-07-25T16:26:12.725Z,4.90
2017-07-25T16:28:41.685Z,4.23
2017-07-25T16:31:10.655Z,4.50
2017-07-25T16:33:39.963Z,4.03
2017-07-25T16:36:09.716Z,4.70
2017-07-25T16:38:38.713Z,4.23
2017-07-25T16:41:07.684Z,4.60
2017-07-25T16:43:36.798Z,3.80
2017-07-25T16:46:05.934Z,5.10
2017-07-25T16:48:34.945Z,4.60
2017-07-25T16:51:07.617Z,4.60
2017-07-25T16:53:36.630Z,4.33
2017-07-25T16:56:05.780Z,4.40
2017-07-25T16:58:34.771Z,4.80
2017-07-25T17:01:03.892Z,3.97
2017-07-25T17:03:33.622Z,4.17
2017-07-25T17:06:02.671Z,4.23
2017-07-25T17:08:31.588Z,5.00
2017-07-25T17:11:01.550Z,4.13
2017-07-25T17:13:30.520Z,3.60
2017-07-25T17:16:00.525Z,3.77
2017-07-25T17:18:30.265Z,4.20
2017-07-25T17:21:03.461Z,4.60
2017-07-25T17:23:32.422Z,4.07
2017-07-25T17:26:02.351Z,3.90
2017-07-25T17:28:35.181Z,3.60
2017-07-25T17:31:10.266Z,4.37
2017-07-25T17:33:39.241Z,3.20
2017-07-25T17:36:08.211Z,4.03
2017-07-25T17:38:37.447Z,3.90
2017-07-25T17:41:06.381Z,4.10
2017-07-25T17:43:35.339Z,4.53
2017-07-25T17:46:04.394Z,4.10
2017-07-25T17:48:33.402Z,4.47
2017-07-25T17:51:02.376Z,4.63
2017-07-25T17:53:32.129Z,3.97
2017-07-25T17:56:01.088Z,5.00
2017-07-25T17:58:30.065Z,4.70
2017-07-25T18:00:59.134Z,4.10
2017-07-25T18:03:28.101Z,5.50
2017-07-25T18:05:57.211Z,4.30
2017-07-25T18:08:26.149Z,5.03
2017-07-25T18:10:55.164Z,4.10
2017-07-25T18:13:27.094Z,5.07
2017-07-25T18:15:56.951Z,4.00
2017-07-25T18:18:25.956Z,3.63
2017-07-25T18:20:54.918Z,4.63
2017-07-25T18:23:23.915Z,5.50
2017-07-25T18:25:53.515Z,4.40
2017-07-25T18:28:22.632Z,4.33
2017-07-25T18:30:51.586Z,5.10
2017-07-25T18:33:21.346Z,5.27
2017-07-25T18:35:50.291Z,5.73
2017-07-25T18:38:19.237Z,5.13
2017-07-25T18:40:48.207Z,5.30
2017-07-25T18:43:17.273Z,5.70
2017-07-25T18:45:46.346Z,5.33
2017-07-25T18:48:16.166Z,5.70
2017-07-25T18:50:45.900Z,5.60
2017-07-25T18:53:14.872Z,6.70
2017-07-25T18:55:44.706Z,5.53
2017-07-25T18:58:14.586Z,7.20
2017-07-25T19:00:44.311Z,5.20
2017-07-25T19:03:13.289Z,5.27
2017-07-25T19:05:43.029Z,5.30
2017-07-25T19:08:11.999Z,5.33
2017-07-25T19:10:41.725Z,4.80
2017-07-25T19:13:10.657Z,4.97
2017-07-25T19:15:39.642Z,5.53
2017-07-25T19:18:08.605Z,5.00
2017-07-25T19:20:37.717Z,4.93
2017-07-25T19:23:06.797Z,4.60
2017-07-25T19:25:35.760Z,4.80
2017-07-25T19:28:05.047Z,4.43
2017-07-25T19:30:34.029Z,4.97
2017-07-25T19:33:04.071Z,4.87
2017-07-25T19:35:33.844Z,5.13
2017-07-25T19:38:02.800Z,4.50
2017-07-25T19:40:31.787Z,5.87
2017-07-25T19:43:01.682Z,5.73
2017-07-25T19:45:30.681Z,5.50
2017-07-25T19:48:00.395Z,4.77
2017-07-25T19:50:29.396Z,5.23
2017-07-25T19:52:59.179Z,5.20
2017-07-25T19:55:28.985Z,6.00
2017-07-25T19:57:58.726Z,5.83
2017-07-25T20:00:27.756Z,6.37
2017-07-25T20:02:57.396Z,5.53
2017-07-25T20:05:26.378Z,5.20
2017-07-25T20:07:55.345Z,6.40
2017-07-25T20:10:24.763Z,6.00
2017-07-25T20:12:54.529Z,7.10
2017-07-25T20:15:23.594Z,6.77
2017-07-25T20:17:52.717Z,6.30
2017-07-25T20:20:21.681Z,6.30
2017-07-25T20:22:51.455Z,5.80
2017-07-25T20:25:22.356Z,5.40
2017-07-25T20:27:51.465Z,5.57
2017-07-25T20:30:20.452Z,6.03
2017-07-25T20:32:49.412Z,5.60
2017-07-25T20:35:19.251Z,5.10
2017-07-25T20:37:48.306Z,5.70
2017-07-25T20:40:17.265Z,5.20
2017-07-25T20:42:46.214Z,5.90
2017-07-25T20:45:16.048Z,6.00
2017-07-25T20:47:45.939Z,6.03
2017-07-25T20:50:14.963Z,6.07
2017-07-25T20:52:44.021Z,6.30
2017-07-25T20:55:13.047Z,6.00
2017-07-25T20:57:42.801Z,5.50
2017-07-25T21:00:11.770Z,6.23
2017-07-25T21:02:40.724Z,5.30
2017-07-25T21:05:09.718Z,6.07
2017-07-25T21:07:38.736Z,5.90
2017-07-25T21:10:07.740Z,6.27
2017-07-25T21:12:37.921Z,6.20
2017-07-25T21:15:06.874Z,6.23
2017-07-25T21:17:36.633Z,8.27
2017-07-25T21:20:05.613Z,6.30
2017-07-25T21:22:34.597Z,6.70
2017-07-25T21:25:03.545Z,6.00
2017-07-25T21:27:32.528Z,6.60
2017-07-25T21:30:01.482Z,6.40
2017-07-25T21:32:30.453Z,5.20
2017-07-25T21:35:01.711Z,6.43
2017-07-25T21:37:30.722Z,7.03
2017-07-25T21:39:59.686Z,5.60
2017-07-25T21:42:28.667Z,5.90
2017-07-25T21:44:58.373Z,6.77
2017-07-25T21:47:28.118Z,6.77
2017-07-25T21:49:57.439Z,6.50
2017-07-25T21:52:27.112Z,7.23
2017-07-25T21:54:56.058Z,6.30
2017-07-25T21:57:25.724Z,6.60
2017-07-25T21:59:54.670Z,6.97
2017-07-25T22:02:35.541Z,7.50
2017-07-25T22:05:05.323Z,8.00
2017-07-25T22:07:34.268Z,7.20
2017-07-25T22:10:03.240Z,6.83
2017-07-25T22:12:32.980Z,7.83
2017-07-25T22:15:01.936Z,7.70
2017-07-25T22:17:30.914Z,8.30
2017-07-25T22:20:00.874Z,8.17
2017-07-25T22:22:29.854Z,7.83
2017-07-25T22:24:58.854Z,8.77
2017-07-25T22:27:27.810Z,7.97
2017-07-25T22:29:56.754Z,8.30
2017-07-25T22:32:27.684Z,8.07
2017-07-25T22:34:57.090Z,7.30
2017-07-25T22:37:27.005Z,7.60
2017-07-25T22:39:55.956Z,8.30
2017-07-25T22:42:25.692Z,9.47
2017-07-25T22:44:54.670Z,8.07
2017-07-25T22:47:23.628Z,8.30
2017-07-25T22:49:52.798Z,7.47
2017-07-25T22:52:22.667Z,8.30
2017-07-25T22:54:51.666Z,8.23
2017-07-25T22:57:20.618Z,8.50
2017-07-25T22:59:50.003Z,8.30
2017-07-25T23:02:18.978Z,7.47
2017-07-25T23:04:47.938Z,7.40
2017-07-25T23:07:17.671Z,8.20
2017-07-25T23:09:46.642Z,8.63
2017-07-25T23:12:16.386Z,9.10
2017-07-25T23:14:45.351Z,8.80
2017-07-25T23:17:14.297Z,9.50
2017-07-25T23:19:43.361Z,9.10
2017-07-25T23:22:12.338Z,9.43
2017-07-25T23:24:41.317Z,10.90
2017-07-25T23:27:10.290Z,10.13
2017-07-25T23:29:40.018Z,9.60
2017-07-25T23:32:08.976Z,10.00
2017-07-25T23:34:37.958Z,9.20
2017-07-25T23:37:06.976Z,11.40
2017-07-25T23:39:35.956Z,10.27
2017-07-25T23:42:05.087Z,9.40
2017-07-25T23:44:34.063Z,10.20
2017-07-25T23:47:03.029Z,10.40
2017-07-25T23:49:32.019Z,9.50
2017-07-25T23:52:00.952Z,10.37
2017-07-25T23:54:29.928Z,10.50
2017-07-25T23:56:58.886Z,9.13
2017-07-25T23:59:27.865Z,10.83
